Time;durP1;ratioP1;P1;durP2;ratioP2;P2;SDS_P1;SDS_P2;PMS_P1;PMS_P2;Temp;Humidity;BMP_temperature;BMP_pressure;BME280_temperature;BME280_humidity;BME280_pressure;Samples;Min_cycle;Max_cycle;Signal;HPM_P1;HPM_P2
2023/01/04 00:00:05;;;;;;;;;2.33;1.50;;;;;11.91;72.09;102389.91;2045069;28;2746142;-83
2023/01/04 00:01:20;;;;;;;;;1.83;1.50;;;;;11.90;72.11;102382.88;2022559;28;2733605;-82
2023/01/04 00:02:33;;;;;;;;;6.00;3.00;;;;;11.89;72.15;102389.06;2020508;28;2754415;-81
2023/01/04 00:03:47;;;;;;;;;3.50;1.50;;;;;11.88;72.34;102389.94;2021349;28;2750289;-82
2023/01/04 00:05:00;;;;;;;;;2.33;2.00;;;;;11.90;71.86;102382.03;2023078;28;2740950;-82
2023/01/04 00:06:15;;;;;;;;;0.83;0.83;;;;;11.90;72.20;102388.16;2022534;28;2745061;-82
2023/01/04 00:07:29;;;;;;;;;3.17;2.50;;;;;11.90;72.11;102377.63;2046175;28;2741916;-82
2023/01/04 00:08:43;;;;;;;;;1.50;1.50;;;;;11.91;72.22;102383.75;2022085;28;2733591;-81
2023/01/04 00:09:56;;;;;;;;;3.00;2.00;;;;;11.90;72.09;102385.53;2021902;28;2754443;-82
2023/01/04 00:11:16;;;;;;;;;3.50;2.67;;;;;11.91;72.10;102384.66;2022187;28;2737764;-82
2023/01/04 00:12:29;;;;;;;;;2.67;2.67;;;;;11.91;72.20;102387.28;2021446;28;2748180;-82
2023/01/04 00:13:43;;;;;;;;;2.33;2.33;;;;;11.93;72.21;102380.22;2045309;28;2737764;-83
2023/01/04 00:14:56;;;;;;;;;3.00;2.50;;;;;11.95;72.16;102379.34;2014572;28;2754443;-81
2023/01/04 00:16:13;;;;;;;;;3.50;2.00;;;;;11.95;71.98;102384.63;2021098;28;2741935;-82
2023/01/04 00:17:26;;;;;;;;;3.00;3.00;;;;;11.95;71.93;102395.16;2021973;28;2750261;-82
2023/01/04 00:18:39;;;;;;;;;4.67;1.67;;;;;11.95;71.83;102396.00;2020668;28;2749235;-82
2023/01/04 00:19:52;;;;;;;;;4.83;2.33;;;;;11.96;71.86;102395.13;2022456;28;2738237;-82
2023/01/04 00:21:14;;;;;;;;;1.67;1.17;;;;;11.97;72.00;102394.25;2022284;28;2722167;-82
2023/01/04 00:22:31;;;;;;;;;2.83;2.00;;;;;11.98;72.20;102385.44;2021114;28;2752382;-83
2023/01/04 00:23:47;;;;;;;;;2.83;2.17;;;;;11.99;72.07;102397.72;2026434;27;2750316;-83
2023/01/04 00:25:00;;;;;;;;;2.50;2.17;;;;;11.99;72.08;102391.59;2021768;28;2754427;-82
2023/01/04 00:26:22;;;;;;;;;2.00;1.17;;;;;12.00;71.98;102385.44;2021729;28;2746613;-82
2023/01/04 00:27:36;;;;;;;;;2.50;1.67;;;;;12.01;71.95;102395.06;2046328;28;2752339;-82
2023/01/04 00:28:54;;;;;;;;;3.83;2.67;;;;;12.00;71.84;102386.28;2022434;28;2744046;-82
2023/01/04 00:30:08;;;;;;;;;3.67;2.17;;;;;12.02;71.91;102391.56;2022804;28;2746091;-82
2023/01/04 00:31:22;;;;;;;;;2.17;2.00;;;;;12.03;72.03;102391.53;2021964;28;2754472;-81
2023/01/04 00:32:35;;;;;;;;;2.33;1.50;;;;;12.03;71.94;102385.38;2021820;28;2746579;-82
2023/01/04 00:33:49;;;;;;;;;2.00;2.00;;;;;12.04;71.75;102389.75;2022113;28;2744409;-82
2023/01/04 00:35:03;;;;;;;;;3.33;2.00;;;;;12.04;71.99;102401.19;2022881;28;2736720;-83
2023/01/04 00:36:16;;;;;;;;;1.17;1.17;;;;;12.04;71.88;102380.09;2022666;28;2737888;-82
2023/01/04 00:37:30;;;;;;;;;4.00;2.00;;;;;12.05;71.82;102394.13;2045053;28;2751317;-83
2023/01/04 00:38:43;;;;;;;;;3.00;3.00;;;;;12.04;71.53;102389.75;2021866;28;2737764;-82
2023/01/04 00:39:56;;;;;;;;;3.00;1.17;;;;;12.04;71.83;102389.75;2022209;28;2741951;-82
2023/01/04 00:41:11;;;;;;;;;1.33;1.33;;;;;12.04;71.69;102385.38;2045511;28;2737073;-82
2023/01/04 00:42:24;;;;;;;;;3.50;1.83;;;;;12.03;71.74;102383.63;2044453;28;2750261;-81
2023/01/04 00:43:37;;;;;;;;;2.67;2.67;;;;;12.05;71.98;102388.84;2022800;28;2737251;-81
2023/01/04 00:44:50;;;;;;;;;2.00;2.00;;;;;12.05;71.84;102383.59;2044935;28;2751319;-81
2023/01/04 00:46:06;;;;;;;;;3.33;2.00;;;;;12.07;71.72;102388.84;2021334;28;2752375;-81
2023/01/04 00:47:19;;;;;;;;;1.00;1.00;;;;;12.07;71.82;102395.00;2023059;28;2730466;-82
2023/01/04 00:48:32;;;;;;;;;2.67;2.00;;;;;12.10;72.00;102386.19;2044084;28;2751323;-82
2023/01/04 00:49:46;;;;;;;;;4.50;2.00;;;;;12.12;71.99;102379.13;2022249;28;2741956;-81
2023/01/04 00:50:59;;;;;;;;;2.00;2.00;;;;;12.13;71.83;102370.34;2021939;28;2753744;-82
2023/01/04 00:52:12;;;;;;;;;2.00;2.00;;;;;12.13;71.57;102381.75;2021797;28;2741924;-82
2023/01/04 00:53:25;;;;;;;;;3.83;1.50;;;;;12.14;71.85;102375.63;2022739;28;2747156;-82
2023/01/04 00:54:39;;;;;;;;;2.83;2.83;;;;;12.15;71.66;102390.53;2044488;28;2748174;-82
2023/01/04 00:55:49;;;;;;;;;4.00;2.00;;;;;12.16;71.53;102378.22;1995383;28;2754468;-81
2023/01/04 00:57:00;;;;;;;;;1.00;1.00;;;;;12.15;71.85;102382.63;2044887;28;2741936;-82
2023/01/04 00:58:11;;;;;;;;;2.33;2.00;;;;;12.18;71.76;102380.81;1996125;28;2754443;-82
2023/01/04 00:59:24;;;;;;;;;2.33;2.00;;;;;12.17;71.67;102387.00;2044422;28;2741940;-82
2023/01/04 01:00:38;;;;;;;;;3.50;2.50;;;;;12.19;71.63;102396.63;2014978;28;2738859;-82
2023/01/04 01:01:52;;;;;;;;;4.67;2.67;;;;;12.19;71.52;102387.84;2044652;28;2739848;-82
2023/01/04 01:03:06;;;;;;;;;3.83;2.00;;;;;12.20;71.41;102389.63;2021073;28;2750278;-82
2023/01/04 01:04:22;;;;;;;;;2.67;1.67;;;;;12.19;71.41;102385.22;2021583;28;2749223;-82
2023/01/04 01:05:35;;;;;;;;;4.50;3.00;;;;;12.20;71.64;102384.34;2019980;28;2748265;-82
2023/01/04 01:06:49;;;;;;;;;2.00;2.00;;;;;12.20;71.59;102382.53;2021884;28;2746107;-82
2023/01/04 01:08:23;;;;;;;;;2.00;1.83;;;;;12.21;71.53;102380.78;2020796;28;2742306;-82
2023/01/04 01:09:36;;;;;;;;;4.00;3.67;;;;;12.22;71.64;102379.91;2045523;28;2739887;-82
2023/01/04 01:10:50;;;;;;;;;2.33;2.33;;;;;12.21;71.66;102381.66;2022066;28;2726344;-81
2023/01/04 01:12:03;;;;;;;;;3.00;3.00;;;;;12.22;71.25;102382.53;2021516;28;2746091;-81
2023/01/04 01:13:17;;;;;;;;;2.67;2.67;;;;;12.22;71.42;102372.00;2021879;28;2748207;-81
2023/01/04 01:14:30;;;;;;;;;3.00;3.00;;;;;12.21;71.37;102368.50;2022262;28;2737768;-82
2023/01/04 01:15:44;;;;;;;;;6.50;3.17;;;;;12.22;71.58;102375.50;2021356;28;2743025;-82
2023/01/04 01:16:57;;;;;;;;;2.83;2.83;;;;;12.23;71.38;102371.97;2022963;28;2735737;-81
2023/01/04 01:18:10;;;;;;;;;2.17;2.17;;;;;12.22;71.23;102372.00;2021598;28;2745560;-82
2023/01/04 01:19:25;;;;;;;;;6.50;3.17;;;;;12.22;71.31;102366.72;2021848;28;2738818;-82
2023/01/04 01:20:43;;;;;;;;;2.67;2.17;;;;;12.21;71.25;102365.84;2021711;28;2739935;-81
2023/01/04 01:21:57;;;;;;;;;2.67;2.50;;;;;12.20;71.29;102369.38;2021333;28;2737090;-81
2023/01/04 01:23:12;;;;;;;;;4.17;3.00;;;;;12.21;71.35;102355.31;2020873;28;2739867;-81
2023/01/04 01:24:26;;;;;;;;;2.67;2.00;;;;;12.21;71.35;102352.69;2045478;28;2739852;-82
2023/01/04 01:25:41;;;;;;;;;2.67;2.33;;;;;12.22;71.54;102350.91;2020323;28;2748185;-81
2023/01/04 01:26:54;;;;;;;;;3.50;2.33;;;;;12.23;71.56;102355.28;2022207;28;2732552;-81
2023/01/04 01:28:08;;;;;;;;;3.00;2.33;;;;;12.22;71.56;102346.50;2044953;28;2735694;-82
2023/01/04 01:29:22;;;;;;;;;2.67;2.67;;;;;12.23;71.56;102353.53;2021925;28;2742974;-82
2023/01/04 01:30:40;;;;;;;;;2.33;2.33;;;;;12.23;71.46;102352.63;2021499;28;2740912;-82
2023/01/04 01:31:53;;;;;;;;;5.00;3.00;;;;;12.22;71.61;102346.50;2021766;28;2745070;-81
2023/01/04 01:33:08;;;;;;;;;4.00;2.33;;;;;12.21;71.21;102339.50;2045482;28;2740375;-82
2023/01/04 01:34:21;;;;;;;;;2.33;2.33;;;;;12.23;71.35;102357.91;2021277;28;2737781;-82
2023/01/04 01:35:35;;;;;;;;;2.33;2.00;;;;;12.23;71.35;102353.53;2020284;28;2735686;-82
2023/01/04 01:36:48;;;;;;;;;2.67;2.67;;;;;12.23;71.69;102363.19;2022472;28;2737845;-83
2023/01/04 01:38:02;;;;;;;;;3.00;2.50;;;;;12.22;71.45;102361.47;2021819;28;2746095;-83
2023/01/04 01:39:15;;;;;;;;;3.83;1.83;;;;;12.23;71.24;102360.53;2021746;28;2744292;-83
2023/01/04 01:40:28;;;;;;;;;2.00;2.00;;;;;12.23;71.31;102363.19;2022409;28;2730511;-82
2023/01/04 01:41:41;;;;;;;;;2.00;2.00;;;;;12.24;71.71;102363.19;2021439;28;2741980;-82
2023/01/04 01:42:55;;;;;;;;;2.83;2.00;;;;;12.26;71.44;102376.34;2021089;28;2732576;-82
2023/01/04 01:44:11;;;;;;;;;4.83;3.00;;;;;12.27;71.21;102364.91;2044066;28;2748212;-82
2023/01/04 01:45:32;;;;;;;;;2.17;2.00;;;;;12.28;71.63;102366.63;2021220;28;2742982;-82
2023/01/04 01:46:52;;;;;;;;;3.67;2.17;;;;;12.29;71.52;102378.06;2045651;28;2747156;-82
2023/01/04 01:48:13;;;;;;;;;3.67;3.00;;;;;12.27;71.76;102365.75;1995536;28;2749215;-82
2023/01/04 01:49:37;;;;;;;;;3.83;3.83;;;;;12.28;71.43;102361.34;2045349;28;2744036;-82
2023/01/04 01:50:59;;;;;;;;;4.67;2.67;;;;;12.27;72.12;102376.31;2021486;28;2739844;-82
2023/01/04 01:52:20;;;;;;;;;3.00;3.00;;;;;12.27;71.53;102364.91;2021004;28;2746075;-83
2023/01/04 01:53:38;;;;;;;;;7.33;4.50;;;;;12.27;71.25;102372.81;2021385;28;2746087;-82
2023/01/04 01:54:59;;;;;;;;;1.00;1.00;;;;;12.24;71.53;102371.09;2015900;28;2733588;-82
2023/01/04 01:56:16;;;;;;;;;4.00;3.33;;;;;12.26;71.18;102366.66;2041774;28;2754424;-81
2023/01/04 01:57:32;;;;;;;;;3.67;3.67;;;;;12.27;71.41;102359.63;1990066;28;3467933;-81
2023/01/04 01:58:52;;;;;;;;;3.83;1.00;;;;;12.27;71.40;102365.75;2045132;28;2741944;-81
2023/01/04 02:00:11;;;;;;;;;3.00;2.67;;;;;12.28;71.64;102374.53;2044811;28;2750261;-82
2023/01/04 02:01:26;;;;;;;;;3.50;2.50;;;;;12.28;71.34;102369.28;2020766;28;2750273;-81
2023/01/04 02:03:06;;;;;;;;;7.67;2.50;;;;;12.30;71.16;102370.13;2020794;28;2746090;-82
2023/01/04 02:04:19;;;;;;;;;3.33;2.33;;;;;12.30;71.37;102380.66;2021108;28;2741956;-82
2023/01/04 02:05:33;;;;;;;;;2.00;2.00;;;;;12.30;71.20;102372.75;2044551;28;2749227;-82
2023/01/04 02:06:50;;;;;;;;;3.67;2.33;;;;;12.31;71.17;102363.09;2044712;28;2738819;-82
2023/01/04 02:08:02;;;;;;;;;8.00;3.00;;;;;12.32;71.16;102370.13;1995651;28;2748664;-82
2023/01/04 02:09:17;;;;;;;;;5.33;2.17;;;;;12.33;71.41;102358.66;2044814;28;2740884;-82
2023/01/04 02:10:31;;;;;;;;;3.33;2.67;;;;;12.34;71.44;102371.84;2021509;28;2737765;-82
2023/01/04 02:11:44;;;;;;;;;4.17;2.67;;;;;12.34;71.34;102366.56;2021206;28;2728379;-82
2023/01/04 02:13:01;;;;;;;;;3.17;2.83;;;;;12.35;71.19;102362.13;2043873;28;2741944;-84
2023/01/04 02:14:26;;;;;;;;;4.17;2.83;;;;;12.36;71.14;102353.34;2021701;28;2745567;-85
2023/01/04 02:16:10;;;;;;;;;3.50;2.50;;;;;12.36;71.11;102348.94;2021719;28;2740917;-84
2023/01/04 02:17:46;;;;;;;;;3.00;2.50;;;;;12.38;70.97;102362.09;2009893;28;2734704;-83
2023/01/04 02:19:18;;;;;;;;;1.67;1.67;;;;;12.37;70.89;102350.69;2023729;28;2738814;-83
2023/01/04 02:20:45;;;;;;;;;3.17;2.67;;;;;12.37;71.07;102342.75;2019994;28;2750351;-84
2023/01/04 02:22:14;;;;;;;;;2.33;1.67;;;;;12.36;71.09;102348.94;2022565;28;2727377;-84
2023/01/04 02:24:02;;;;;;;;;2.83;1.83;;;;;12.37;71.16;102353.31;2020825;28;2750269;-84
2023/01/04 02:25:37;;;;;;;;;2.17;1.83;;;;;12.37;71.37;102341.91;2013818;28;2731496;-84
2023/01/04 02:27:09;;;;;;;;;3.17;2.67;;;;;12.38;70.99;102338.38;2013425;28;2746126;-84
2023/01/04 02:28:40;;;;;;;;;2.33;2.33;;;;;12.38;71.14;102341.88;2013906;28;2737770;-84
2023/01/04 02:30:38;;;;;;;;;5.17;1.83;;;;;12.38;71.25;102335.72;2037547;28;2729425;-84
2023/01/04 02:32:02;;;;;;;;;1.67;1.67;;;;;12.39;70.97;102342.75;2027648;28;2739856;-84
2023/01/04 02:33:42;;;;;;;;;2.33;1.83;;;;;12.40;71.09;102338.34;2012605;28;2736719;-84
2023/01/04 02:35:12;;;;;;;;;3.33;2.67;;;;;12.40;71.05;102348.88;2019254;28;2748248;-84
2023/01/04 02:36:36;;;;;;;;;4.67;1.67;;;;;12.40;70.99;102341.84;2021750;28;2740874;-84
2023/01/04 02:38:43;;;;;;;;;3.50;2.00;;;;;12.40;71.07;102348.88;2019691;28;2752371;-84
2023/01/04 02:40:06;;;;;;;;;3.17;2.33;;;;;12.39;71.15;102358.59;2012070;28;2744053;-84
2023/01/04 02:41:33;;;;;;;;;2.50;2.50;;;;;12.39;71.06;102348.03;2028480;28;2737263;-84
2023/01/04 02:44:54;;;;;;;;;3.50;2.67;;;;;12.37;70.84;102334.84;2031998;28;2753394;-84
2023/01/04 02:46:30;;;;;;;;;2.50;2.17;;;;;12.36;71.16;102346.31;2020619;28;2750285;-84
2023/01/04 02:50:52;;;;;;;;;5.67;3.67;;;;;12.36;71.11;102362.13;2044684;28;2742974;-85
2023/01/04 02:52:07;;;;;;;;;4.50;2.50;;;;;12.37;70.78;102365.66;2021181;28;2742998;-84
2023/01/04 02:53:22;;;;;;;;;2.00;2.00;;;;;12.37;70.99;102366.50;2020934;28;2753744;-84
2023/01/04 02:54:36;;;;;;;;;2.50;2.50;;;;;12.38;70.93;102354.19;2021119;28;2752356;-84
2023/01/04 02:56:02;;;;;;;;;2.17;2.17;;;;;12.38;70.97;102357.72;2022171;28;2732605;-85
2023/01/04 02:57:31;;;;;;;;;2.33;1.83;;;;;12.40;70.67;102354.16;2021648;28;2730489;-84
2023/01/04 02:59:02;;;;;;;;;4.17;3.00;;;;;12.40;70.71;102346.25;2042184;28;2740894;-85
2023/01/04 03:06:22;;;;;;;;;2.50;1.50;;;;;12.36;70.98;102354.22;2021649;28;2733595;-84
2023/01/04 03:07:58;;;;;;;;;2.83;2.50;;;;;12.37;70.88;102360.38;2021132;28;2740879;-84
2023/01/04 03:09:19;;;;;;;;;2.00;0.83;;;;;12.35;70.98;102352.47;2021927;28;2734091;-84
2023/01/04 03:11:05;;;;;;;;;2.50;1.83;;;;;12.35;70.88;102349.84;2014883;28;2739837;-84
2023/01/04 03:12:32;;;;;;;;;2.50;2.00;;;;;12.37;70.96;102361.22;2009683;28;2751330;-84
2023/01/04 03:13:46;;;;;;;;;2.67;2.00;;;;;12.37;70.91;102348.03;2020949;28;2751295;-84
2023/01/04 03:15:21;;;;;;;;;4.50;2.67;;;;;12.37;71.32;102348.03;2021503;28;2731556;-83
2023/01/04 03:16:38;;;;;;;;;4.67;2.00;;;;;12.38;70.98;102349.78;2020891;28;2737769;-83
2023/01/04 03:17:58;;;;;;;;;4.33;3.83;;;;;12.38;71.19;102362.09;2020877;28;2737753;-84
2023/01/04 03:19:50;;;;;;;;;2.33;1.67;;;;;12.37;70.91;102350.69;2020933;28;2750245;-84
2023/01/04 03:20:51;;;;;;;;;2.17;2.17;;;;;12.40;70.85;102354.16;2045015;28;2736743;-83
2023/01/04 03:35:21;;;;;;;;;2.17;2.17;;;;;12.39;71.01;102358.59;2043723;28;2744051;-84
2023/01/04 03:37:08;;;;;;;;;1.67;1.67;;;;;12.42;71.10;102349.75;2044763;28;2748181;-84
2023/01/04 03:49:08;;;;;;;;;4.67;3.17;;;;;12.42;71.11;102328.66;2020912;28;2750269;-84
2023/01/04 03:50:27;;;;;;;;;4.00;4.00;;;;;12.44;71.07;102326.88;1995462;28;2739856;-84
2023/01/04 03:51:44;;;;;;;;;5.50;2.50;;;;;12.44;71.07;102326.88;2017563;28;2751334;-84
2023/01/04 03:53:01;;;;;;;;;2.67;2.50;;;;;12.45;71.28;102325.94;2020791;28;2748672;-84
2023/01/04 03:54:20;;;;;;;;;2.50;2.00;;;;;12.45;71.16;102318.91;2020645;28;2739841;-84
2023/01/04 03:55:38;;;;;;;;;2.00;2.00;;;;;12.46;71.22;102311.88;2021600;28;2751302;-84
2023/01/04 03:56:53;;;;;;;;;2.67;1.67;;;;;12.46;71.07;102311.88;2021331;28;2736764;-85
2023/01/04 03:58:06;;;;;;;;;4.83;1.33;;;;;12.48;71.38;102310.09;2020010;28;2753359;-84
2023/01/04 03:59:21;;;;;;;;;2.17;2.00;;;;;12.48;71.11;102304.81;2043644;28;2747163;-84
2023/01/04 04:00:34;;;;;;;;;1.83;1.00;;;;;12.50;70.98;102308.28;2042748;28;2724217;-84
2023/01/04 04:01:48;;;;;;;;;2.83;2.33;;;;;12.50;71.30;102310.94;2042801;28;2751326;-84
2023/01/04 04:03:08;;;;;;;;;2.67;2.00;;;;;12.51;71.16;102298.63;2043852;28;2747144;-85
2023/01/04 04:08:56;;;;;;;;;2.17;1.83;;;;;12.49;71.17;102303.94;2021545;28;2740894;-84
2023/01/04 04:10:09;;;;;;;;;2.67;1.83;;;;;12.50;70.84;102297.75;2020686;28;2749240;-85
2023/01/04 04:11:29;;;;;;;;;2.33;1.00;;;;;12.51;71.27;102299.50;2021584;28;2729546;-85
2023/01/04 04:12:42;;;;;;;;;2.67;2.00;;;;;12.50;71.40;102295.09;2022430;28;2719008;-85
2023/01/04 04:13:56;;;;;;;;;1.83;1.67;;;;;12.51;71.13;102282.81;2019818;28;2745065;-84
2023/01/04 04:15:09;;;;;;;;;2.00;2.00;;;;;12.51;71.04;102288.06;2020554;28;2748221;-85
2023/01/04 04:16:23;;;;;;;;;4.50;2.83;;;;;12.51;71.27;102290.72;2020676;28;2741932;-84
2023/01/04 04:17:36;;;;;;;;;1.83;1.50;;;;;12.52;71.39;102279.28;2021114;28;2741928;-84
2023/01/04 04:18:50;;;;;;;;;3.50;2.83;;;;;12.53;71.35;102287.16;2044534;28;2741944;-84
2023/01/04 04:20:03;;;;;;;;;3.33;2.00;;;;;12.53;71.31;102276.59;2021015;28;2750269;-85
2023/01/04 04:21:16;;;;;;;;;1.83;1.67;;;;;12.54;71.15;102274.84;2020280;28;2746091;-85
2023/01/04 04:22:29;;;;;;;;;2.83;2.00;;;;;12.55;70.95;102279.22;2020352;28;2742058;-85
2023/01/04 04:23:43;;;;;;;;;2.00;2.00;;;;;12.56;71.46;102287.13;2043898;28;2738815;-84
2023/01/04 04:24:56;;;;;;;;;3.00;3.00;;;;;12.56;71.24;102288.88;2044000;28;2734647;-84
2023/01/04 04:26:09;;;;;;;;;2.50;1.50;;;;;12.56;71.44;102295.03;2020880;28;2744028;-84
2023/01/04 04:27:23;;;;;;;;;3.50;2.50;;;;;12.56;71.36;102287.13;2021105;28;2735124;-84
2023/01/04 04:28:37;;;;;;;;;2.83;2.33;;;;;12.57;71.30;102291.47;2019880;28;2750253;-85
2023/01/04 04:29:50;;;;;;;;;4.17;3.17;;;;;12.58;71.26;102292.34;2020300;28;2748196;-85
2023/01/04 04:31:04;;;;;;;;;2.00;1.00;;;;;12.58;71.34;102293.22;2020988;28;2741932;-84
2023/01/04 04:32:17;;;;;;;;;4.00;2.00;;;;;12.59;71.63;102299.38;2020941;28;2731509;-84
2023/01/04 04:33:30;;;;;;;;;6.17;3.00;;;;;12.59;71.25;102292.31;2019613;28;2739889;-84
2023/01/04 04:34:44;;;;;;;;;2.00;2.00;;;;;12.58;71.24;102295.88;2020596;28;2745048;-84
2023/01/04 04:35:57;;;;;;;;;3.00;2.17;;;;;12.58;71.37;102297.63;2018327;28;2750245;-84
2023/01/04 04:37:10;;;;;;;;;2.83;2.00;;;;;12.58;71.33;102319.59;2013941;28;2750280;-85
2023/01/04 04:38:24;;;;;;;;;2.67;2.67;;;;;12.57;71.39;102301.16;2022870;28;2737757;-84
2023/01/04 04:39:37;;;;;;;;;2.17;2.17;;;;;12.55;71.47;102295.91;2021492;28;2740893;-85
2023/01/04 04:42:22;;;;;;;;;2.67;2.00;;;;;12.55;71.31;102300.31;2022578;28;2736732;-84
2023/01/04 04:43:33;;;;;;;;;4.00;3.00;;;;;12.55;71.56;102301.19;1996388;28;2754437;-84
2023/01/04 04:44:44;;;;;;;;;3.00;2.25;;;;;12.54;71.53;102304.75;2045038;28;2738268;-84
2023/01/04 04:45:58;;;;;;;;;2.50;2.50;;;;;12.56;71.73;102304.69;2044062;28;2736710;-84
2023/01/04 04:47:11;;;;;;;;;2.17;2.17;;;;;12.57;71.76;102309.06;2026265;28;2754447;-84
2023/01/04 04:48:24;;;;;;;;;4.00;2.83;;;;;12.57;71.73;102304.66;2022662;28;2729431;-84
2023/01/04 04:49:37;;;;;;;;;6.17;3.50;;;;;12.57;71.41;102304.66;2045217;28;2742980;-85
2023/01/04 04:50:51;;;;;;;;;3.17;2.33;;;;;12.57;71.82;102295.88;2022931;28;2733610;-84
2023/01/04 04:52:01;;;;;;;;;4.00;2.00;;;;;12.58;71.83;102297.63;1996065;28;2746096;-84
2023/01/04 04:53:12;;;;;;;;;4.67;2.00;;;;;12.58;71.43;102298.50;2044192;28;2741989;-84
2023/01/04 04:54:25;;;;;;;;;3.17;1.00;;;;;12.59;71.65;102308.16;2024159;28;2738326;-84
2023/01/04 04:55:39;;;;;;;;;2.00;2.00;;;;;12.62;71.23;102290.56;2045356;28;2732577;-84
2023/01/04 04:56:52;;;;;;;;;3.00;1.33;;;;;12.62;71.48;102304.59;2022445;28;2726330;-84
2023/01/04 04:58:05;;;;;;;;;2.17;2.17;;;;;12.62;71.42;102293.19;2020999;28;2748174;-84
2023/01/04 04:59:18;;;;;;;;;2.17;2.17;;;;;12.62;71.44;102295.81;2021420;28;2747147;-84
2023/01/04 05:00:31;;;;;;;;;3.17;3.17;;;;;12.63;71.60;102294.91;2045268;28;2748216;-84
2023/01/04 05:01:42;;;;;;;;;3.00;2.33;;;;;12.61;71.52;102289.69;1995692;28;2754430;-86
2023/01/04 05:02:53;;;;;;;;;8.50;3.00;;;;;12.60;71.55;102294.06;2035215;28;2751291;-85
2023/01/04 05:04:04;;;;;;;;;5.67;3.00;;;;;12.60;71.46;102296.72;2041937;28;2752309;-85
2023/01/04 05:05:17;;;;;;;;;3.50;3.50;;;;;12.61;71.53;102302.88;2022991;28;2738795;-84
2023/01/04 05:06:30;;;;;;;;;4.17;2.00;;;;;12.61;71.75;102294.94;2022578;28;2750285;-85
2023/01/04 05:07:44;;;;;;;;;5.00;3.33;;;;;12.60;71.18;102294.06;2021315;28;2745049;-84
2023/01/04 05:08:57;;;;;;;;;2.00;2.00;;;;;12.62;71.29;102295.81;2020864;28;2741920;-85
2023/01/04 05:10:10;;;;;;;;;3.50;3.00;;;;;12.62;71.71;102288.75;2021323;28;2738838;-84
2023/01/04 05:13:01;;;;;;;;;3.67;3.33;;;;;12.62;71.53;102285.28;2021134;28;2747121;-84
2023/01/04 05:14:14;;;;;;;;;3.00;3.00;;;;;12.63;71.50;102273.81;2021911;28;2746090;-85
2023/01/04 05:15:35;;;;;;;;;3.67;3.67;;;;;12.62;71.43;102272.94;2044381;28;2749700;-85
2023/01/04 05:16:48;;;;;;;;;2.00;2.00;;;;;12.62;71.40;102265.03;2028268;28;2736731;-84
2023/01/04 05:18:02;;;;;;;;;2.50;2.00;;;;;12.63;71.59;102274.69;2021676;28;2735721;-85
2023/01/04 05:19:15;;;;;;;;;4.50;2.83;;;;;12.63;71.46;102276.44;2021051;28;2736724;-85
2023/01/04 05:20:29;;;;;;;;;3.17;3.00;;;;;12.64;71.62;102278.19;2020655;28;2752344;-85
2023/01/04 05:21:39;;;;;;;;;3.67;3.00;;;;;12.64;71.64;102278.19;1995632;28;2739892;-85
2023/01/04 05:22:52;;;;;;;;;3.00;2.00;;;;;12.62;71.70;102272.94;2043253;28;2746099;-85
2023/01/04 05:24:06;;;;;;;;;3.00;3.00;;;;;12.63;71.58;102265.91;2045786;28;2727349;-85
2023/01/04 05:25:20;;;;;;;;;2.83;2.83;;;;;12.63;71.92;102268.53;2022599;28;2725281;-84
2023/01/04 05:26:33;;;;;;;;;4.33;2.00;;;;;12.62;71.26;102272.94;2022045;28;2737765;-84
2023/01/04 05:27:46;;;;;;;;;4.17;2.50;;;;;12.64;71.64;102259.75;2044877;28;2746113;-84
2023/01/04 05:28:59;;;;;;;;;3.00;3.00;;;;;12.64;71.77;102276.44;2022039;28;2729456;-85
2023/01/04 05:31:46;;;;;;;;;4.50;3.00;;;;;12.65;71.65;102278.16;2021242;28;2749238;-85
2023/01/04 05:33:00;;;;;;;;;6.00;4.00;;;;;12.66;71.54;102279.03;2020940;28;2745053;-85
2023/01/04 05:34:13;;;;;;;;;3.00;3.00;;;;;12.66;71.87;102269.38;2021874;28;2729472;-84
2023/01/04 05:35:26;;;;;;;;;2.00;2.00;;;;;12.66;71.70;102271.13;2044373;28;2748284;-84
2023/01/04 05:36:40;;;;;;;;;3.33;3.00;;;;;12.67;71.96;102272.84;2021749;28;2739876;-84
2023/01/04 05:37:53;;;;;;;;;2.50;2.00;;;;;12.68;71.86;102274.59;2019167;28;2750261;-85
2023/01/04 05:39:07;;;;;;;;;3.17;2.83;;;;;12.67;71.56;102278.13;2015223;28;2746441;-85
2023/01/04 05:40:22;;;;;;;;;2.67;2.67;;;;;12.67;72.05;102264.94;2020357;28;2750300;-84
2023/01/04 05:43:09;;;;;;;;;3.33;3.00;;;;;12.68;71.88;102280.75;2019899;28;2739858;-85
2023/01/04 05:44:22;;;;;;;;;2.50;2.50;;;;;12.68;72.06;102279.88;2026843;28;2744043;-84
2023/01/04 05:45:35;;;;;;;;;3.83;3.00;;;;;12.68;71.67;102274.59;2021417;28;2744038;-85
2023/01/04 05:46:48;;;;;;;;;3.83;2.83;;;;;12.69;71.76;102282.47;2020783;28;2745100;-84
2023/01/04 05:48:02;;;;;;;;;4.33;2.33;;;;;12.70;72.08;102278.09;2020782;28;2747156;-85
2023/01/04 05:49:15;;;;;;;;;2.17;2.17;;;;;12.70;72.02;102273.69;2037457;28;2748186;-85
2023/01/04 05:50:29;;;;;;;;;4.83;3.67;;;;;12.69;71.99;102271.94;2019815;28;2748181;-84
2023/01/04 05:51:42;;;;;;;;;1.50;1.50;;;;;12.68;72.27;102274.59;2021890;28;2750296;-84
2023/01/04 05:52:55;;;;;;;;;3.33;2.83;;;;;12.67;72.14;102279.00;2044996;28;2735682;-84
2023/01/04 05:54:08;;;;;;;;;5.33;2.00;;;;;12.66;72.12;102282.56;2020987;28;2750276;-86
2023/01/04 05:55:21;;;;;;;;;2.83;1.17;;;;;12.66;72.25;102272.00;2036963;28;2744027;-84
2023/01/04 05:56:32;;;;;;;;;2.67;2.67;;;;;12.66;72.06;102269.38;1995377;28;2739853;-84
2023/01/04 05:57:43;;;;;;;;;2.00;2.00;;;;;12.66;72.29;102274.66;2044049;28;2745049;-84
2023/01/04 05:58:56;;;;;;;;;2.00;2.00;;;;;12.66;72.17;102279.03;2020615;28;2738911;-85
2023/01/04 06:00:11;;;;;;;;;3.50;2.33;;;;;12.66;72.34;102276.41;2012720;28;2754840;-84
2023/01/04 06:01:24;;;;;;;;;4.00;2.17;;;;;12.66;72.82;102281.69;2019275;28;2742997;-85
2023/01/04 06:02:38;;;;;;;;;1.00;1.00;;;;;12.67;71.79;102280.75;2021118;28;2735678;-84
2023/01/04 06:03:51;;;;;;;;;3.83;2.00;;;;;12.67;72.33;102272.84;2045251;28;2740926;-84
2023/01/04 06:05:04;;;;;;;;;3.00;3.00;;;;;12.68;72.56;102269.31;2020441;28;2737796;-85
2023/01/04 06:06:15;;;;;;;;;4.00;3.00;;;;;12.69;72.41;102276.34;1993224;28;3453358;-85
2023/01/04 06:07:28;;;;;;;;;2.25;2.00;;;;;12.69;72.52;102276.34;2043597;28;2741952;-84
2023/01/04 06:08:41;;;;;;;;;2.50;2.50;;;;;12.69;72.64;102292.19;2022157;28;2749223;-85
2023/01/04 06:09:54;;;;;;;;;1.83;1.83;;;;;12.68;72.41;102278.13;2021137;28;2737765;-85
2023/01/04 06:11:08;;;;;;;;;1.33;1.33;;;;;12.69;72.45;102297.47;2021551;28;2733630;-85
2023/01/04 06:12:21;;;;;;;;;2.00;2.00;;;;;12.68;72.06;102293.94;2044478;28;2747136;-84
2023/01/04 06:13:31;;;;;;;;;2.67;2.00;;;;;12.69;72.42;102292.19;1995914;28;2753392;-84
2023/01/04 06:14:42;;;;;;;;;5.00;3.00;;;;;12.69;72.46;102290.41;2044099;28;2732542;-84
2023/01/04 06:15:56;;;;;;;;;2.83;2.83;;;;;12.70;72.58;102291.28;2044343;28;2737773;-84
2023/01/04 06:17:09;;;;;;;;;1.50;1.50;;;;;12.70;72.73;102291.28;2044901;28;2731515;-84
2023/01/04 06:18:22;;;;;;;;;2.00;2.00;;;;;12.71;72.38;102293.03;2044549;28;2733928;-84
2023/01/04 06:19:36;;;;;;;;;3.33;2.67;;;;;12.69;72.70;102287.75;2021374;28;2732953;-85
2023/01/04 06:20:50;;;;;;;;;2.33;2.33;;;;;12.70;72.52;102288.63;2043853;28;2754469;-84
2023/01/04 06:22:04;;;;;;;;;2.50;2.00;;;;;12.71;72.66;102290.38;2022023;28;2741920;-85
2023/01/04 06:23:17;;;;;;;;;3.00;2.00;;;;;12.70;72.56;102289.50;2020826;28;2752349;-85
2023/01/04 06:24:30;;;;;;;;;2.00;2.00;;;;;12.71;72.46;102296.53;2020534;28;2750273;-84
2023/01/04 06:25:43;;;;;;;;;2.17;2.00;;;;;12.71;72.56;102293.03;2021566;28;2736748;-84
2023/01/04 06:26:57;;;;;;;;;3.17;2.50;;;;;12.71;72.89;102287.75;2020569;28;2754915;-84
2023/01/04 06:28:10;;;;;;;;;2.67;2.00;;;;;12.72;72.55;102278.91;2021005;28;2748598;-84
2023/01/04 06:29:23;;;;;;;;;3.00;2.00;;;;;12.72;72.60;102276.28;2020353;28;2752368;-84
2023/01/04 06:30:36;;;;;;;;;2.33;1.83;;;;;12.74;72.69;102289.47;2020170;28;2741943;-84
2023/01/04 06:31:49;;;;;;;;;2.17;2.00;;;;;12.74;72.77;102292.09;2013266;28;2752332;-84
2023/01/04 06:33:03;;;;;;;;;3.00;2.00;;;;;12.73;72.65;102293.88;2019749;28;2750312;-85